createdAt,value
2019-02-16T00:00:07.239Z,88.745117
2019-02-16T00:01:16.786Z,88.745117
2019-02-16T00:02:26.312Z,88.641357
2019-02-16T00:03:35.820Z,88.220215
2019-02-16T00:04:45.364Z,87.908936
2019-02-16T00:05:54.889Z,87.591553
2019-02-16T00:07:04.446Z,87.591553
2019-02-16T00:08:14.010Z,87.695312
2019-02-16T00:09:23.580Z,88.262939
2019-02-16T00:10:33.113Z,88.684082
2019-02-16T00:11:42.639Z,88.891602
2019-02-16T00:12:52.168Z,89.099121
2019-02-16T00:14:01.722Z,89.208984
2019-02-16T00:15:11.269Z,88.95874
2019-02-16T00:16:20.778Z,88.433838
2019-02-16T00:17:30.307Z,87.799072
2019-02-16T00:18:39.839Z,87.133789
2019-02-16T00:19:49.460Z,86.712646
2019-02-16T00:21:03.888Z,86.712646
2019-02-16T00:22:09.515Z,87.133789
2019-02-16T00:23:19.066Z,87.908936
2019-02-16T00:24:28.606Z,88.433838
2019-02-16T00:25:38.131Z,88.537598
2019-02-16T00:26:47.654Z,88.220215
2019-02-16T00:27:57.197Z,88.323975
2019-02-16T00:29:06.768Z,88.220215
2019-02-16T00:30:16.316Z,88.116455
2019-02-16T00:31:25.814Z,88.433838
2019-02-16T00:32:35.334Z,88.116455
2019-02-16T00:33:44.868Z,88.220215
2019-02-16T00:34:54.383Z,88.220215
2019-02-16T00:36:03.905Z,88.116455
2019-02-16T00:37:13.435Z,88.220215
2019-02-16T00:38:24.035Z,88.220215
2019-02-16T00:39:33.621Z,87.908936
2019-02-16T00:40:43.227Z,87.445068
2019-02-16T00:41:52.860Z,87.133789
2019-02-16T00:43:02.534Z,87.554932
2019-02-16T00:44:12.169Z,87.445068
2019-02-16T00:45:21.799Z,87.341309
2019-02-16T00:46:31.349Z,87.030029
2019-02-16T00:47:40.912Z,87.030029
2019-02-16T00:48:50.531Z,87.030029
2019-02-16T00:50:00.109Z,86.920166
2019-02-16T00:51:13.441Z,86.920166
2019-02-16T00:52:19.132Z,86.401367
2019-02-16T00:53:28.664Z,86.083984
2019-02-16T00:54:38.188Z,86.291504
2019-02-16T00:55:47.748Z,86.505127
2019-02-16T00:56:57.274Z,86.401367
2019-02-16T00:58:06.780Z,86.187744
2019-02-16T00:59:16.328Z,86.608887
2019-02-16T01:00:25.884Z,86.920166
2019-02-16T01:01:35.415Z,86.816406
2019-02-16T01:02:44.990Z,86.505127
2019-02-16T01:03:54.527Z,86.645508
2019-02-16T01:05:04.042Z,86.755371
2019-02-16T01:06:13.613Z,87.384033
2019-02-16T01:07:23.137Z,87.908936
2019-02-16T01:08:32.687Z,88.220215
2019-02-16T01:09:42.219Z,88.116455
2019-02-16T01:10:51.750Z,88.323975
2019-02-16T01:12:01.260Z,88.116455
2019-02-16T01:13:10.776Z,88.012695
2019-02-16T01:14:20.306Z,87.280273
2019-02-16T01:15:29.826Z,87.487793
2019-02-16T01:16:39.554Z,87.799072
2019-02-16T01:17:49.068Z,88.012695
2019-02-16T01:18:58.600Z,88.012695
2019-02-16T01:20:08.130Z,87.591553
2019-02-16T01:21:22.691Z,87.17041
2019-02-16T01:22:28.100Z,86.712646
2019-02-16T01:23:37.635Z,86.083984
2019-02-16T01:24:47.149Z,85.662842
2019-02-16T01:25:56.685Z,85.205078
2019-02-16T01:27:06.196Z,84.997559
2019-02-16T01:28:15.732Z,84.790039
2019-02-16T01:29:25.255Z,84.472656
2019-02-16T01:30:34.770Z,84.472656
2019-02-16T01:31:44.288Z,84.472656
2019-02-16T01:32:53.813Z,84.472656
2019-02-16T01:34:03.348Z,84.368896
2019-02-16T01:35:12.880Z,84.161377
2019-02-16T01:36:22.392Z,84.161377
2019-02-16T01:37:31.912Z,83.843994
2019-02-16T01:38:41.449Z,83.947754
2019-02-16T01:39:50.970Z,84.265137
2019-02-16T01:41:00.488Z,83.740234
2019-02-16T01:42:10.037Z,84.161377
2019-02-16T01:43:19.536Z,85.205078
2019-02-16T01:44:29.102Z,85.559082
2019-02-16T01:45:38.646Z,85.455322
2019-02-16T01:46:48.169Z,85.247803
2019-02-16T01:47:57.681Z,85.137939
2019-02-16T01:49:07.242Z,85.284424
2019-02-16T01:50:16.768Z,84.759521
2019-02-16T01:51:31.798Z,85.247803
2019-02-16T01:52:36.774Z,85.137939
2019-02-16T01:53:46.321Z,85.03418
2019-02-16T01:54:55.852Z,85.180664
2019-02-16T01:56:05.358Z,85.076904
2019-02-16T01:57:14.865Z,85.388184
2019-02-16T01:58:24.393Z,85.705566
2019-02-16T01:59:33.931Z,85.809326
2019-02-16T02:00:43.445Z,85.388184
2019-02-16T02:01:52.994Z,85.491943
2019-02-16T02:03:02.525Z,85.638428
2019-02-16T02:04:12.037Z,85.949707
2019-02-16T02:05:21.907Z,86.16333
2019-02-16T02:06:31.462Z,86.26709
2019-02-16T02:07:40.974Z,86.999512
2019-02-16T02:08:50.507Z,87.316895
2019-02-16T02:10:00.036Z,87.316895
2019-02-16T02:11:09.562Z,86.791992
2019-02-16T02:12:19.082Z,86.474609
2019-02-16T02:13:28.594Z,86.474609
2019-02-16T02:14:38.108Z,86.16333
2019-02-16T02:15:47.620Z,86.199951
2019-02-16T02:16:57.141Z,86.517334
2019-02-16T02:18:07.638Z,86.621094
2019-02-16T02:19:17.164Z,87.188721
2019-02-16T02:20:26.659Z,87.078857
2019-02-16T02:21:41.080Z,87.188721
2019-02-16T02:22:46.682Z,87.750244
2019-02-16T02:23:56.215Z,88.275146
2019-02-16T02:25:05.723Z,88.48877
2019-02-16T02:26:15.255Z,89.324951
2019-02-16T02:27:24.778Z,89.581299
2019-02-16T02:28:34.278Z,90.313721
2019-02-16T02:29:43.790Z,90.734863
2019-02-16T02:30:53.300Z,90.942383
2019-02-16T02:32:02.831Z,91.156006
2019-02-16T02:33:12.326Z,91.259766
2019-02-16T02:34:21.852Z,91.363525
2019-02-16T02:35:31.381Z,91.259766
2019-02-16T02:36:40.913Z,90.838623
2019-02-16T02:37:50.425Z,90.460205
2019-02-16T02:38:59.983Z,90.460205
2019-02-16T02:40:09.545Z,90.356445
2019-02-16T02:41:19.070Z,90.252686
2019-02-16T02:42:28.565Z,90.356445
2019-02-16T02:43:38.078Z,90.673828
2019-02-16T02:44:47.757Z,90.777588
2019-02-16T02:45:57.136Z,90.985107
2019-02-16T02:47:06.669Z,91.40625
2019-02-16T02:48:16.181Z,91.577148
2019-02-16T02:49:25.689Z,91.784668
2019-02-16T02:50:35.258Z,91.998291
2019-02-16T02:51:51.641Z,92.205811
2019-02-16T02:52:56.604Z,92.30957
2019-02-16T02:54:04.845Z,92.30957
2019-02-16T02:55:14.398Z,92.272949
2019-02-16T02:56:24.903Z,92.059326
2019-02-16T02:57:34.434Z,91.955566
2019-02-16T02:58:43.958Z,91.638184
2019-02-16T02:59:53.623Z,91.534424
2019-02-16T03:01:03.138Z,91.430664
2019-02-16T03:02:12.662Z,91.430664
2019-02-16T03:03:22.201Z,91.326904
2019-02-16T03:04:31.774Z,91.070557
2019-02-16T03:05:41.306Z,90.863037
2019-02-16T03:06:50.841Z,90.545654
2019-02-16T03:08:00.354Z,90.124512
2019-02-16T03:09:09.876Z,89.813232
2019-02-16T03:10:19.422Z,89.538574
2019-02-16T03:11:28.955Z,88.909912
2019-02-16T03:12:38.467Z,88.378906
2019-02-16T03:13:48.122Z,88.592529
2019-02-16T03:14:57.495Z,88.696289
2019-02-16T03:16:07.016Z,88.378906
2019-02-16T03:17:16.523Z,88.48877
2019-02-16T03:18:26.034Z,89.013672
2019-02-16T03:19:35.553Z,89.117432
2019-02-16T03:20:45.079Z,88.696289
2019-02-16T03:22:02.411Z,88.592529
2019-02-16T03:23:05.095Z,88.696289
2019-02-16T03:24:14.662Z,89.160156
2019-02-16T03:25:24.189Z,89.263916
2019-02-16T03:26:33.688Z,89.471436
2019-02-16T03:27:43.220Z,89.51416
2019-02-16T03:28:52.742Z,89.831543
2019-02-16T03:30:02.256Z,90.039062
2019-02-16T03:31:11.807Z,90.039062
2019-02-16T03:32:21.317Z,90.50293
2019-02-16T03:33:31.826Z,91.345215
2019-02-16T03:34:41.333Z,91.766357
2019-02-16T03:35:50.858Z,92.077637
2019-02-16T03:37:00.383Z,92.437744
2019-02-16T03:38:09.925Z,92.919922
2019-02-16T03:39:19.462Z,93.133545
2019-02-16T03:40:28.994Z,93.133545
2019-02-16T03:41:38.496Z,92.816162
2019-02-16T03:42:48.126Z,92.608643
2019-02-16T03:43:57.517Z,92.39502
2019-02-16T03:45:07.019Z,92.608643
2019-02-16T03:46:16.542Z,92.498779
2019-02-16T03:47:26.081Z,92.498779
2019-02-16T03:48:35.622Z,92.608643
2019-02-16T03:49:45.144Z,93.029785
2019-02-16T03:50:54.656Z,93.029785
2019-02-16T03:52:13.173Z,92.712402
2019-02-16T03:53:14.707Z,92.1875
2019-02-16T03:54:24.231Z,91.766357
2019-02-16T03:55:33.731Z,91.345215
2019-02-16T03:56:43.246Z,91.448975
2019-02-16T03:57:52.773Z,91.552734
2019-02-16T03:59:02.293Z,91.656494
2019-02-16T04:00:11.793Z,91.387939
2019-02-16T04:01:21.339Z,91.174316
2019-02-16T04:02:30.863Z,91.174316
2019-02-16T04:03:40.376Z,90.856934
2019-02-16T04:04:49.887Z,90.899658
2019-02-16T04:05:59.413Z,91.003418
2019-02-16T04:07:08.960Z,91.003418
2019-02-16T04:08:18.478Z,91.320801
2019-02-16T04:09:27.997Z,91.534424
2019-02-16T04:10:38.527Z,91.534424
2019-02-16T04:11:48.048Z,91.467285
2019-02-16T04:12:57.583Z,91.571045
2019-02-16T04:14:07.113Z,91.571045
2019-02-16T04:15:16.641Z,91.680908
2019-02-16T04:16:26.189Z,92.034912
2019-02-16T04:17:35.717Z,91.931152
2019-02-16T04:18:45.237Z,92.034912
2019-02-16T04:19:54.768Z,92.352295
2019-02-16T04:21:04.289Z,92.352295
2019-02-16T04:22:23.802Z,92.352295
2019-02-16T04:23:24.330Z,92.877197
2019-02-16T04:24:33.875Z,94.146729
2019-02-16T04:25:43.419Z,94.989014
2019-02-16T04:26:52.939Z,95.153809
2019-02-16T04:28:02.474Z,95.050049
2019-02-16T04:29:12.000Z,94.628906
2019-02-16T04:30:21.526Z,94.525146
2019-02-16T04:31:31.064Z,94.421387
2019-02-16T04:32:40.571Z,94.104004
2019-02-16T04:33:50.099Z,93.572998
2019-02-16T04:34:59.629Z,93.469238
2019-02-16T04:36:09.181Z,93.469238
2019-02-16T04:37:18.701Z,93.365479
2019-02-16T04:38:28.210Z,93.109131
2019-02-16T04:39:37.766Z,92.584229
2019-02-16T04:40:47.321Z,92.480469
2019-02-16T04:41:56.866Z,92.376709
2019-02-16T04:43:06.401Z,92.163086
2019-02-16T04:44:15.902Z,92.266846
2019-02-16T04:45:25.412Z,92.266846
2019-02-16T04:46:34.959Z,92.480469
2019-02-16T04:47:44.463Z,92.797852
2019-02-16T04:48:53.982Z,93.218994
2019-02-16T04:50:03.553Z,93.426514
2019-02-16T04:51:13.093Z,93.530273
2019-02-16T04:52:22.616Z,93.426514
2019-02-16T04:53:33.158Z,93.322754
2019-02-16T04:54:42.604Z,93.109131
2019-02-16T04:55:52.132Z,93.261719
2019-02-16T04:57:01.682Z,93.469238
2019-02-16T04:58:11.219Z,93.847656
2019-02-16T04:59:20.754Z,93.847656
2019-02-16T05:00:30.263Z,93.786621
2019-02-16T05:01:39.803Z,93.786621
2019-02-16T05:02:49.323Z,93.682861
2019-02-16T05:03:58.840Z,93.469238
2019-02-16T05:05:08.362Z,93.048096
2019-02-16T05:06:17.893Z,92.205811
2019-02-16T05:07:27.417Z,91.888428
2019-02-16T05:08:36.930Z,92.205811
2019-02-16T05:09:46.449Z,92.565918
2019-02-16T05:10:55.959Z,92.669678
2019-02-16T05:12:05.491Z,92.669678
2019-02-16T05:13:15.018Z,93.09082
2019-02-16T05:14:24.525Z,93.09082
2019-02-16T05:15:34.091Z,92.987061
2019-02-16T05:16:43.722Z,93.09082
2019-02-16T05:17:53.222Z,93.408203
2019-02-16T05:19:02.742Z,93.511963
2019-02-16T05:20:12.246Z,93.615723
2019-02-16T05:21:21.766Z,93.725586
2019-02-16T05:22:31.285Z,93.572998
2019-02-16T05:23:41.807Z,93.469238
2019-02-16T05:24:51.357Z,93.151855
2019-02-16T05:26:00.884Z,92.987061
2019-02-16T05:27:10.424Z,92.730713
2019-02-16T05:28:19.946Z,92.41333
2019-02-16T05:29:29.490Z,92.102051
2019-02-16T05:30:39.031Z,91.827393
2019-02-16T05:31:48.573Z,91.717529
2019-02-16T05:32:58.083Z,91.088867
2019-02-16T05:34:07.650Z,90.667725
2019-02-16T05:35:17.175Z,90.136719
2019-02-16T05:36:26.680Z,89.929199
2019-02-16T05:37:36.205Z,90.075684
2019-02-16T05:38:45.716Z,90.393066
2019-02-16T05:39:55.230Z,91.40625
2019-02-16T05:41:04.742Z,91.827393
2019-02-16T05:42:14.274Z,91.61377
2019-02-16T05:43:23.788Z,91.192627
2019-02-16T05:44:33.307Z,91.088867
2019-02-16T05:45:42.825Z,91.40625
2019-02-16T05:46:52.362Z,91.888428
2019-02-16T05:48:01.901Z,92.30957
2019-02-16T05:49:11.419Z,92.163086
2019-02-16T05:50:20.932Z,91.174316
2019-02-16T05:51:30.500Z,90.39917
2019-02-16T05:52:39.970Z,89.556885
2019-02-16T05:53:50.471Z,88.183594
2019-02-16T05:54:59.979Z,87.347412
2019-02-16T05:56:09.494Z,87.237549
2019-02-16T05:57:19.039Z,86.608887
2019-02-16T05:58:28.559Z,87.06665
2019-02-16T05:59:38.094Z,88.183594
2019-02-16T06:00:47.641Z,88.183594
2019-02-16T06:01:57.177Z,87.658691
2019-02-16T06:03:06.680Z,87.280273
2019-02-16T06:04:16.295Z,87.487793
2019-02-16T06:05:25.718Z,88.476562
2019-02-16T06:06:35.237Z,89.422607
2019-02-16T06:07:44.822Z,89.953613
2019-02-16T06:08:54.348Z,90.161133
2019-02-16T06:10:03.856Z,90.161133
2019-02-16T06:11:13.360Z,90.374756
2019-02-16T06:12:22.908Z,90.374756
2019-02-16T06:13:32.458Z,89.63623
2019-02-16T06:14:41.967Z,89.990234
2019-02-16T06:15:51.498Z,90.100098
2019-02-16T06:17:01.032Z,89.465332
2019-02-16T06:18:10.559Z,89.044189
2019-02-16T06:19:20.096Z,89.251709
2019-02-16T06:20:29.615Z,89.611816
2019-02-16T06:21:39.133Z,89.715576
2019-02-16T06:22:48.668Z,90.136719
2019-02-16T06:23:58.213Z,90.557861
2019-02-16T06:25:07.739Z,90.875244
2019-02-16T06:26:17.271Z,90.875244
2019-02-16T06:27:26.796Z,90.667725
2019-02-16T06:28:36.325Z,90.454102
2019-02-16T06:29:45.845Z,90.83252
2019-02-16T06:30:55.363Z,91.046143
2019-02-16T06:32:04.907Z,90.161133
2019-02-16T06:33:14.455Z,89.532471
2019-02-16T06:34:23.972Z,88.690186
2019-02-16T06:35:33.484Z,88.580322
2019-02-16T06:36:43.058Z,88.580322
2019-02-16T06:37:52.590Z,88.201904
2019-02-16T06:39:02.116Z,87.780762
2019-02-16T06:40:11.628Z,87.988281
2019-02-16T06:41:21.157Z,88.098145
2019-02-16T06:42:30.696Z,88.409424
2019-02-16T06:43:40.215Z,88.830566
2019-02-16T06:44:49.753Z,88.830566
2019-02-16T06:46:00.823Z,88.623047
2019-02-16T06:47:08.800Z,88.726807
2019-02-16T06:48:18.335Z,88.623047
2019-02-16T06:49:27.851Z,88.201904
2019-02-16T06:50:37.410Z,88.623047
2019-02-16T06:51:46.881Z,89.465332
2019-02-16T06:52:56.399Z,89.532471
2019-02-16T06:54:05.899Z,89.422607
2019-02-16T06:55:15.410Z,89.215088
2019-02-16T06:56:24.931Z,89.111328
2019-02-16T06:57:34.479Z,88.964844
2019-02-16T06:58:44.018Z,88.543701
2019-02-16T06:59:53.629Z,88.397217
2019-02-16T07:01:03.150Z,87.976074
2019-02-16T07:02:12.662Z,87.72583
2019-02-16T07:03:22.187Z,87.408447
2019-02-16T07:04:31.701Z,86.950684
2019-02-16T07:05:41.217Z,86.737061
2019-02-16T07:06:50.767Z,86.59668
2019-02-16T07:08:00.288Z,86.383057
2019-02-16T07:09:09.798Z,86.029053
2019-02-16T07:10:19.336Z,85.192871
2019-02-16T07:11:28.875Z,85.046387
2019-02-16T07:12:38.402Z,84.692383
2019-02-16T07:13:47.954Z,84.063721
2019-02-16T07:14:57.479Z,83.605957
2019-02-16T07:16:07.021Z,83.288574
2019-02-16T07:17:16.569Z,82.623291
2019-02-16T07:18:26.128Z,82.312012
2019-02-16T07:19:35.657Z,81.890869
2019-02-16T07:20:45.178Z,81.433105
2019-02-16T07:21:54.698Z,81.225586
2019-02-16T07:23:04.227Z,80.456543
2019-02-16T07:24:13.737Z,78.985596
2019-02-16T07:25:23.261Z,77.69165
2019-02-16T07:26:32.781Z,77.34375
2019-02-16T07:27:42.335Z,75.842285
2019-02-16T07:28:51.952Z,75.427246
2019-02-16T07:30:01.472Z,74.975586
2019-02-16T07:31:10.991Z,74.731445
2019-02-16T07:32:20.496Z,73.583984
2019-02-16T07:33:30.027Z,73.443604
2019-02-16T07:34:39.534Z,72.918701
2019-02-16T07:35:49.049Z,71.948242
2019-02-16T07:36:58.551Z,71.5271
2019-02-16T07:38:09.098Z,70.977783
2019-02-16T07:39:18.626Z,70.318604
2019-02-16T07:40:28.134Z,69.659424
2019-02-16T07:41:37.659Z,69.030762
2019-02-16T07:42:47.207Z,67.956543
2019-02-16T07:43:56.744Z,67.718506
2019-02-16T07:45:06.264Z,66.888428
2019-02-16T07:46:15.759Z,66.96167
2019-02-16T07:47:25.288Z,66.30249
2019-02-16T07:48:34.820Z,65.753174
2019-02-16T07:49:44.337Z,65.545654
2019-02-16T07:50:53.874Z,64.788818
2019-02-16T07:52:03.383Z,64.758301
2019-02-16T07:53:12.911Z,63.824463
2019-02-16T07:54:22.425Z,62.548828
2019-02-16T07:55:31.938Z,61.791992
2019-02-16T07:56:41.485Z,61.035156
2019-02-16T07:57:51.016Z,59.973145
2019-02-16T07:59:00.571Z,59.527588
2019-02-16T08:00:10.072Z,58.48999
2019-02-16T08:01:19.582Z,57.946777
2019-02-16T08:02:29.100Z,57.501221
2019-02-16T08:03:38.670Z,56.469727
2019-02-16T08:04:48.188Z,56.750488
2019-02-16T08:05:57.705Z,56.726074
2019-02-16T08:07:07.230Z,55.59082
2019-02-16T08:08:16.782Z,55.352783
2019-02-16T08:09:26.343Z,55.352783
2019-02-16T08:10:35.902Z,54.943848
2019-02-16T08:11:45.411Z,55.047607
2019-02-16T08:12:54.916Z,55.224609
2019-02-16T08:14:04.477Z,54.91333
2019-02-16T08:15:13.996Z,54.089355
2019-02-16T08:16:23.501Z,53.961182
2019-02-16T08:17:33.014Z,53.442383
2019-02-16T08:18:42.540Z,53.417969
2019-02-16T08:19:52.054Z,54.144287
2019-02-16T08:21:01.556Z,52.258301
2019-02-16T08:22:11.085Z,52.7771
2019-02-16T08:23:20.669Z,52.258301
2019-02-16T08:24:30.193Z,52.050781
2019-02-16T08:25:39.720Z,51.226807
2019-02-16T08:26:49.244Z,52.46582
2019-02-16T08:27:58.765Z,51.306152
2019-02-16T08:29:08.303Z,50.708008
2019-02-16T08:30:17.836Z,52.026367
2019-02-16T08:31:27.355Z,51.098633
2019-02-16T08:32:36.873Z,50.683594
2019-02-16T08:33:46.418Z,49.835205
2019-02-16T08:34:55.940Z,49.21875
2019-02-16T08:36:05.456Z,49.194336
2019-02-16T08:37:14.979Z,49.066162
2019-02-16T08:38:24.516Z,48.657227
2019-02-16T08:39:34.223Z,48.632812
2019-02-16T08:40:43.746Z,48.016357
2019-02-16T08:41:53.259Z,47.991943
2019-02-16T08:43:02.770Z,47.351074
2019-02-16T08:44:12.298Z,47.045898
2019-02-16T08:45:21.848Z,46.405029
2019-02-16T08:46:31.377Z,45.86792
2019-02-16T08:47:40.889Z,44.946289
2019-02-16T08:48:50.436Z,44.921875
2019-02-16T08:49:59.967Z,44.512939
2019-02-16T08:51:09.479Z,44.287109
2019-02-16T08:52:19.044Z,43.774414
2019-02-16T08:53:28.561Z,43.774414
2019-02-16T08:54:38.091Z,43.670654
2019-02-16T08:55:47.599Z,44.799805
2019-02-16T08:56:57.126Z,44.390869
2019-02-16T08:58:06.650Z,44.98291
2019-02-16T08:59:16.221Z,44.555664
2019-02-16T09:00:25.766Z,44.226074
2019-02-16T09:01:35.288Z,43.487549
2019-02-16T09:02:44.931Z,43.280029
2019-02-16T09:03:54.457Z,43.463135
2019-02-16T09:05:03.979Z,43.365479
2019-02-16T09:06:13.502Z,42.626953
2019-02-16T09:07:23.011Z,42.010498
2019-02-16T09:08:32.528Z,42.218018
2019-02-16T09:09:42.100Z,42.193604
2019-02-16T09:10:51.648Z,40.948486
2019-02-16T09:12:01.218Z,39.923096
2019-02-16T09:13:10.778Z,40.228271
2019-02-16T09:14:20.302Z,39.331055
2019-02-16T09:15:29.820Z,39.61792
2019-02-16T09:16:39.536Z,39.923096
2019-02-16T09:17:49.072Z,39.208984
2019-02-16T09:18:58.615Z,39.61792
2019-02-16T09:20:08.135Z,39.39209
2019-02-16T09:21:17.701Z,39.086914
2019-02-16T09:22:27.246Z,39.599609
2019-02-16T09:23:36.780Z,39.086914
2019-02-16T09:24:46.346Z,39.086914
2019-02-16T09:25:55.878Z,38.983154
2019-02-16T09:27:05.413Z,38.897705
2019-02-16T09:28:15.930Z,38.897705
2019-02-16T09:29:25.459Z,39.086914
2019-02-16T09:30:34.987Z,38.781738
2019-02-16T09:31:44.524Z,39.39209
2019-02-16T09:32:55.112Z,39.39209
2019-02-16T09:34:04.648Z,40.29541
2019-02-16T09:35:14.177Z,39.685059
2019-02-16T09:36:23.734Z,39.666748
2019-02-16T09:37:33.276Z,39.971924
2019-02-16T09:38:42.800Z,40.155029
2019-02-16T09:39:52.324Z,39.849854
2019-02-16T09:41:01.865Z,39.849854
2019-02-16T09:42:11.376Z,39.935303
2019-02-16T09:43:20.919Z,39.605713
2019-02-16T09:44:30.447Z,38.873291
2019-02-16T09:45:39.960Z,38.568115
2019-02-16T09:46:49.492Z,38.85498
2019-02-16T09:47:58.994Z,38.433838
2019-02-16T09:49:08.512Z,37.414551
2019-02-16T09:50:18.064Z,37.39624
2019-02-16T09:51:27.600Z,37.597656
2019-02-16T09:52:37.106Z,37.683105
2019-02-16T09:53:46.631Z,37.17041
2019-02-16T09:54:56.181Z,37.359619
2019-02-16T09:56:05.703Z,35.101318
2019-02-16T09:57:15.215Z,36.102295
2019-02-16T09:58:24.728Z,35.491943
2019-02-16T09:59:34.285Z,34.051514
2019-02-16T10:00:43.798Z,34.869385
2019-02-16T10:01:53.301Z,34.442139
2019-02-16T10:03:02.840Z,34.735107
2019-02-16T10:04:12.390Z,34.222412
2019-02-16T10:05:22.004Z,33.294678
2019-02-16T10:06:31.527Z,32.37915
2019-02-16T10:07:41.051Z,32.177734
2019-02-16T10:08:50.577Z,31.469727
2019-02-16T10:10:00.234Z,31.567383
2019-02-16T10:11:09.663Z,31.976318
2019-02-16T10:12:19.193Z,31.872559
2019-02-16T10:13:28.758Z,32.165527
2019-02-16T10:14:38.331Z,32.366943
2019-02-16T10:15:47.849Z,31.134033
2019-02-16T10:16:57.377Z,30.731201
2019-02-16T10:18:07.266Z,31.030273
2019-02-16T10:19:16.799Z,30.310059
2019-02-16T10:20:26.366Z,30.310059
2019-02-16T10:21:35.927Z,30.511475
2019-02-16T10:22:45.483Z,30.310059
2019-02-16T10:23:54.998Z,30.090332
2019-02-16T10:25:04.556Z,31.005859
2019-02-16T10:26:14.102Z,30.596924
2019-02-16T10:27:23.615Z,29.803467
2019-02-16T10:28:33.164Z,29.803467
2019-02-16T10:29:42.692Z,29.180908
2019-02-16T10:30:52.241Z,29.064941
2019-02-16T10:32:01.774Z,28.845215
2019-02-16T10:33:11.278Z,28.735352
2019-02-16T10:34:20.795Z,28.948975
2019-02-16T10:35:30.325Z,30.047607
2019-02-16T10:36:40.833Z,29.425049
2019-02-16T10:37:50.365Z,29.022217
2019-02-16T10:38:59.897Z,28.808594
2019-02-16T10:40:09.422Z,28.692627
2019-02-16T10:41:18.945Z,28.894043
2019-02-16T10:42:28.457Z,29.095459
2019-02-16T10:43:38.995Z,35.040283
2019-02-16T10:44:48.516Z,32.403564
2019-02-16T10:45:58.032Z,31.176758
2019-02-16T10:47:07.556Z,30.871582
2019-02-16T10:48:17.063Z,34.588623
2019-02-16T10:49:26.608Z,30.151367
2019-02-16T10:50:36.139Z,29.864502
2019-02-16T10:51:45.642Z,29.663086
2019-02-16T10:52:55.140Z,29.559326
2019-02-16T10:54:04.665Z,28.741455
2019-02-16T10:55:14.209Z,28.942871
2019-02-16T10:56:23.762Z,26.318359
2019-02-16T10:57:33.285Z,26.519775
2019-02-16T10:58:42.799Z,27.832031
2019-02-16T10:59:52.336Z,25.714111
2019-02-16T11:01:01.873Z,29.229736
2019-02-16T11:02:11.387Z,29.632568
2019-02-16T11:03:20.887Z,26.9104
2019-02-16T11:04:37.851Z,25.610352
2019-02-16T11:05:40.901Z,25.817871
2019-02-16T11:06:50.411Z,29.13208
2019-02-16T11:07:59.920Z,28.625488
2019-02-16T11:09:09.417Z,25.073242
2019-02-16T11:10:18.990Z,26.989746
2019-02-16T11:11:28.495Z,25.78125
2019-02-16T11:12:38.038Z,26.165771
2019-02-16T11:13:47.554Z,25.378418
2019-02-16T11:14:57.072Z,25.769043
2019-02-16T11:16:06.609Z,24.761963
2019-02-16T11:17:16.121Z,24.560547
2019-02-16T11:18:25.615Z,24.456787
2019-02-16T11:19:35.138Z,24.859619
2019-02-16T11:20:44.677Z,24.761963
2019-02-16T11:21:54.201Z,23.864746
2019-02-16T11:23:03.779Z,25.878906
2019-02-16T11:24:13.283Z,25.384521
2019-02-16T11:25:22.869Z,24.884033
2019-02-16T11:26:32.400Z,25.793457
2019-02-16T11:27:41.910Z,24.377441
2019-02-16T11:28:51.435Z,23.059082
2019-02-16T11:30:00.956Z,23.968506
2019-02-16T11:31:10.487Z,24.975586
2019-02-16T11:32:20.010Z,25.262451
2019-02-16T11:33:29.535Z,24.041748
2019-02-16T11:34:39.040Z,22.119141
2019-02-16T11:35:48.575Z,22.021484
2019-02-16T11:36:58.088Z,23.22998
2019-02-16T11:38:07.611Z,23.217773
2019-02-16T11:39:17.119Z,21.911621
2019-02-16T11:40:26.636Z,23.00415
2019-02-16T11:41:36.135Z,21.887207
2019-02-16T11:42:45.632Z,21.990967
2019-02-16T11:43:55.135Z,22.991943
2019-02-16T11:45:04.667Z,22.393799
2019-02-16T11:46:14.192Z,24.200439
2019-02-16T11:47:23.722Z,21.765137
2019-02-16T11:48:33.219Z,20.373535
2019-02-16T11:49:42.713Z,20.983887
2019-02-16T11:50:52.276Z,20.892334
2019-02-16T11:52:01.784Z,21.899414
2019-02-16T11:53:11.302Z,21.19751
2019-02-16T11:54:20.806Z,21.600342
2019-02-16T11:55:30.848Z,20.996094
2019-02-16T11:56:39.844Z,20.794678
2019-02-16T11:57:49.373Z,21.990967
2019-02-16T11:58:58.903Z,22.192383
2019-02-16T12:00:08.411Z,21.777344
2019-02-16T12:01:17.938Z,20.361328
2019-02-16T12:02:27.455Z,20.953369
2019-02-16T12:03:37.956Z,19.842529
2019-02-16T12:04:47.509Z,20.74585
2019-02-16T12:05:57.058Z,21.343994
2019-02-16T12:07:06.557Z,20.336914
2019-02-16T12:08:16.076Z,20.825195
2019-02-16T12:09:25.626Z,22.027588
2019-02-16T12:10:35.147Z,19.622803
2019-02-16T12:11:44.698Z,20.715332
2019-02-16T12:12:54.232Z,20.3125
2019-02-16T12:14:03.769Z,19.702148
2019-02-16T12:15:13.287Z,19.995117
2019-02-16T12:16:22.834Z,19.396973
2019-02-16T12:17:32.354Z,19.488525
2019-02-16T12:18:41.893Z,20.373535
2019-02-16T12:19:51.505Z,18.97583
2019-02-16T12:21:01.055Z,18.07251
2019-02-16T12:22:10.589Z,17.980957
2019-02-16T12:23:20.164Z,18.078613
2019-02-16T12:24:29.668Z,19.189453
2019-02-16T12:25:39.194Z,19.085693
2019-02-16T12:26:48.739Z,18.280029
2019-02-16T12:27:58.279Z,18.579102
2019-02-16T12:29:07.812Z,18.475342
2019-02-16T12:30:17.337Z,18.969727
2019-02-16T12:31:26.871Z,18.951416
2019-02-16T12:32:36.389Z,18.841553
2019-02-16T12:33:45.901Z,19.030762
2019-02-16T12:34:55.403Z,17.230225
2019-02-16T12:36:04.944Z,17.816162
2019-02-16T12:37:14.455Z,17.437744
2019-02-16T12:38:23.980Z,17.236328
2019-02-16T12:39:33.506Z,17.626953
2019-02-16T12:40:43.031Z,18.109131
2019-02-16T12:41:52.583Z,18.200684
2019-02-16T12:43:02.102Z,18.09082
2019-02-16T12:44:11.639Z,16.394043
2019-02-16T12:45:21.520Z,16.082764
2019-02-16T12:46:30.846Z,15.2771
2019-02-16T12:47:40.347Z,15.667725
2019-02-16T12:48:49.890Z,15.673828
2019-02-16T12:49:59.419Z,15.576172
2019-02-16T12:51:08.981Z,15.582275
2019-02-16T12:52:18.539Z,16.094971
2019-02-16T12:53:28.066Z,16.705322
2019-02-16T12:54:37.618Z,16.705322
2019-02-16T12:55:47.144Z,16.906738
2019-02-16T12:56:56.691Z,16.314697
2019-02-16T12:58:06.206Z,16.308594
2019-02-16T12:59:15.739Z,16.113281
2019-02-16T13:00:25.266Z,16.027832
2019-02-16T13:01:34.806Z,17.114258
2019-02-16T13:02:44.345Z,16.699219
2019-02-16T13:03:53.863Z,16.97998
2019-02-16T13:05:03.385Z,17.06543
2019-02-16T13:06:12.894Z,16.662598
2019-02-16T13:07:22.415Z,16.064453
2019-02-16T13:08:31.938Z,15.368652
2019-02-16T13:09:41.435Z,15.673828
2019-02-16T13:10:50.949Z,15.39917
2019-02-16T13:12:00.514Z,15.795898
2019-02-16T13:13:10.044Z,16.204834
2019-02-16T13:14:19.546Z,16.003418
2019-02-16T13:15:29.051Z,15.795898